Time;durP1;ratioP1;P1;durP2;ratioP2;P2;SDS_P1;SDS_P2;PMS_P1;PMS_P2;Temp;Humidity;BMP_temperature;BMP_pressure;BME280_temperature;BME280_humidity;BME280_pressure;Samples;Min_cycle;Max_cycle;Signal;HPM_P1;HPM_P2
2022/12/05 00:00:22;;;;;;;28.33;13.90;;;;;;;4.53;100.00;99613.75;12183024;19;20010;-82
2022/12/05 00:04:23;;;;;;;32.72;13.05;;;;;;;4.53;100.00;99621.94;12206978;19;20284;-82
2022/12/05 00:08:25;;;;;;;28.35;13.23;;;;;;;4.54;100.00;99626.34;12182577;19;20338;-83
2022/12/05 00:12:27;;;;;;;29.40;13.23;;;;;;;4.52;100.00;99623.00;12204193;19;20006;-82
2022/12/05 00:16:30;;;;;;;31.95;14.20;;;;;;;4.53;100.00;99629.28;12205108;19;20023;-82
2022/12/05 00:20:32;;;;;;;28.85;13.77;;;;;;;4.52;100.00;99631.19;12183623;19;20007;-82
2022/12/05 00:24:34;;;;;;;34.03;14.57;;;;;;;4.52;100.00;99642.09;12203215;19;20469;-82
2022/12/05 00:28:36;;;;;;;31.38;12.10;;;;;;;4.53;100.00;99643.75;12204801;19;20010;-82
2022/12/05 00:32:37;;;;;;;31.65;13.68;;;;;;;4.57;100.00;99649.63;12178375;19;20642;-82
2022/12/05 00:36:39;;;;;;;32.25;13.38;;;;;;;4.55;100.00;99649.00;12200244;19;20007;-82
2022/12/05 00:40:41;;;;;;;30.17;12.60;;;;;;;4.57;100.00;99652.34;12199859;19;20010;-81
2022/12/05 00:44:42;;;;;;;26.40;12.55;;;;;;;4.59;100.00;99657.63;12180041;19;20011;-81
2022/12/05 00:48:44;;;;;;;33.47;12.57;;;;;;;4.58;100.00;99659.50;12202585;19;20028;-82
2022/12/05 00:52:46;;;;;;;34.73;12.23;;;;;;;4.61;100.00;99660.94;12202053;19;20035;-82
2022/12/05 00:56:48;;;;;;;31.88;13.00;;;;;;;4.59;100.00;99663.91;12177600;19;20401;-82
2022/12/05 01:00:49;;;;;;;31.98;14.18;;;;;;;4.57;100.00;99658.66;12201114;19;20010;-82
2022/12/05 01:04:51;;;;;;;34.50;13.80;;;;;;;4.60;100.00;99662.84;12201935;19;20007;-81
2022/12/05 01:08:54;;;;;;;29.17;13.10;;;;;;;4.60;100.00;99662.00;12178375;19;20006;-82
2022/12/05 01:12:56;;;;;;;32.58;13.35;;;;;;;4.60;100.00;99662.00;12200337;19;20006;-81
2022/12/05 01:16:57;;;;;;;33.35;13.13;;;;;;;4.59;100.00;99672.09;12197128;19;20027;-82
2022/12/05 01:21:04;;;;;;;28.60;12.70;;;;;;;4.60;100.00;99673.75;12200767;19;21207;-82
2022/12/05 01:25:05;;;;;;;29.77;12.48;;;;;;;4.59;100.00;99680.28;12198914;19;20002;-82
2022/12/05 01:29:08;;;;;;;24.80;9.32;;;;;;;4.62;100.00;99687.22;12178540;19;20034;-82
2022/12/05 01:33:11;;;;;;;28.20;12.57;;;;;;;4.63;100.00;99694.34;12198958;19;20011;-82
2022/12/05 01:37:12;;;;;;;27.95;11.68;;;;;;;4.66;100.00;99700.19;12202013;19;20467;-81
2022/12/05 01:41:17;;;;;;;36.88;13.07;;;;;;;4.67;100.00;99699.16;12183706;19;20006;-83
2022/12/05 01:45:40;;;;;;;34.35;12.63;;;;;;;4.68;100.00;99702.72;12244085;19;20027;-81
2022/12/05 01:49:42;;;;;;;32.42;13.05;;;;;;;4.65;100.00;99704.00;12264172;19;20011;-81
2022/12/05 01:53:44;;;;;;;24.25;11.52;;;;;;;4.68;100.00;99706.28;12208785;19;20121;-81
2022/12/05 01:57:47;;;;;;;30.25;12.88;;;;;;;4.73;100.00;99711.09;12202192;19;20003;-83
2022/12/05 02:01:49;;;;;;;32.13;12.82;;;;;;;4.73;100.00;99695.56;12193348;19;21639;-81
2022/12/05 02:05:53;;;;;;;29.00;13.40;;;;;;;4.70;100.00;99703.31;12170729;19;20479;-82
2022/12/05 02:09:55;;;;;;;30.35;13.25;;;;;;;4.68;100.00;99708.19;12189622;19;21322;-82
2022/12/05 02:14:34;;;;;;;33.65;14.10;;;;;;;4.71;100.00;99691.38;12193108;19;20024;-82
2022/12/05 02:18:44;;;;;;;31.40;13.75;;;;;;;4.71;100.00;99697.66;12087449;19;2004449;-81
2022/12/05 02:23:16;;;;;;;33.75;13.32;;;;;;;4.69;100.00;99690.75;12188061;19;20420;-81
2022/12/05 02:27:48;;;;;;;27.80;12.30;;;;;;;4.65;100.00;99701.25;12170568;19;20048;-82
2022/12/05 02:32:01;;;;;;;34.15;12.93;;;;;;;4.65;100.00;99700.41;12195651;19;20011;-82
2022/12/05 02:36:16;;;;;;;33.55;12.25;;;;;;;4.66;100.00;99699.34;12169065;19;20019;-83
2022/12/05 02:40:29;;;;;;;34.75;12.98;;;;;;;4.67;100.00;99701.03;12193490;19;20002;-82
2022/12/05 02:44:30;;;;;;;;;;;;;;;4.66;100.00;99699.34;12224068;19;20003;-82
2022/12/05 02:48:37;;;;;;;29.33;11.63;;;;;;;4.65;100.00;99704.00;12217945;19;19951;-82
2022/12/05 02:52:40;;;;;;;31.35;13.35;;;;;;;4.66;100.00;99715.72;12204661;19;20031;-82
2022/12/05 02:56:44;;;;;;;33.80;13.60;;;;;;;4.65;100.00;99714.06;12185627;19;20007;-81
2022/12/05 03:00:48;;;;;;;28.38;13.15;;;;;;;4.68;100.00;99721.81;12203121;19;20374;-82
2022/12/05 03:04:51;;;;;;;30.10;13.05;;;;;;;4.71;100.00;99724.13;12207045;19;20455;-83
2022/12/05 03:08:59;;;;;;;32.33;12.48;;;;;;;4.72;100.00;99725.78;12182426;19;20341;-82
2022/12/05 03:13:08;;;;;;;35.92;14.32;;;;;;;4.71;100.00;99729.59;12204533;19;20017;-82
2022/12/05 03:17:15;;;;;;;36.13;13.60;;;;;;;4.71;100.00;99737.78;12182652;19;20749;-82
2022/12/05 03:21:28;;;;;;;31.63;13.27;;;;;;;4.71;100.00;99735.06;12198054;19;20007;-83
2022/12/05 03:26:10;;;;;;;32.72;12.90;;;;;;;4.66;100.00;99737.56;12202989;19;20023;-82
2022/12/05 03:30:15;;;;;;;37.28;14.23;;;;;;;4.56;100.00;99749.75;12184439;19;20003;-83
2022/12/05 03:34:43;;;;;;;41.03;14.02;;;;;;;4.57;100.00;99751.44;12203782;19;20006;-82
2022/12/05 03:39:03;;;;;;;34.25;13.98;;;;;;;4.60;100.00;99752.91;12178117;19;20011;-83
2022/12/05 03:43:30;;;;;;;35.55;13.02;;;;;;;4.63;100.00;99757.09;12204747;19;20003;-82
2022/12/05 03:47:32;;;;;;;32.90;13.13;;;;;;;4.65;100.00;99757.75;12184441;19;20010;-83
2022/12/05 03:51:38;;;;;;;33.50;14.30;;;;;;;4.56;100.00;99763.41;12201153;19;20017;-82
2022/12/05 03:55:44;;;;;;;37.97;14.77;;;;;;;4.56;100.00;99759.84;12201516;19;21422;-81
2022/12/05 03:59:51;;;;;;;38.47;14.30;;;;;;;4.53;100.00;99755.66;12179824;19;20007;-83
2022/12/05 04:04:08;;;;;;;43.72;16.08;;;;;;;4.49;100.00;99757.13;12200808;19;19998;-82
2022/12/05 04:08:17;;;;;;;42.67;16.40;;;;;;;4.44;100.00;99759.66;12181269;19;20011;-82
2022/12/05 04:12:26;;;;;;;45.97;16.23;;;;;;;4.38;100.00;99768.69;12203295;19;20026;-82
2022/12/05 04:25:34;;;;;;;56.95;17.92;;;;;;;4.23;100.00;99779.81;12219730;19;20040;-82
2022/12/05 04:29:44;;;;;;;44.90;16.73;;;;;;;4.19;100.00;99786.69;12191057;19;20874;-82
2022/12/05 04:33:55;;;;;;;59.35;18.73;;;;;;;4.21;100.00;99795.53;12200375;19;20017;-82
2022/12/05 04:38:05;;;;;;;51.35;18.17;;;;;;;4.23;100.00;99806.25;12198995;19;20784;-83
2022/12/05 04:42:11;;;;;;;59.15;19.95;;;;;;;4.22;100.00;99804.53;12178624;19;20007;-83
2022/12/05 04:46:15;;;;;;;56.85;21.73;;;;;;;4.21;100.00;99805.59;12200685;19;20010;-82
2022/12/05 04:50:19;;;;;;;66.20;19.73;;;;;;;4.21;100.00;99803.72;12177813;19;20456;-83
2022/12/05 04:54:33;;;;;;;78.35;21.23;;;;;;;4.23;100.00;99800.78;12200239;19;20006;-82
2022/12/05 04:58:34;;;;;;;95.60;23.67;;;;;;;4.19;100.00;99799.50;12199226;19;20003;-82
2022/12/05 05:02:45;;;;;;;93.40;24.38;;;;;;;4.13;100.00;99801.19;12177467;19;20086;-82
2022/12/05 05:06:47;;;;;;;81.30;23.60;;;;;;;4.16;100.00;99806.22;12200342;19;20002;-83
2022/12/05 05:11:18;;;;;;;67.97;21.60;;;;;;;4.19;100.00;99804.97;12196687;19;20006;-83
2022/12/05 05:15:20;;;;;;;69.00;20.63;;;;;;;4.25;100.00;99791.34;12179062;19;20501;-84
2022/12/05 05:19:22;;;;;;;89.75;23.30;;;;;;;4.23;100.00;99789.88;12199456;19;20015;-83
2022/12/05 05:23:24;;;;;;;89.60;25.38;;;;;;;4.22;100.00;99790.91;12181187;19;20124;-82
2022/12/05 05:27:26;;;;;;;49.55;15.10;;;;;;;4.27;100.00;99775.59;12199827;19;20006;-82
2022/12/05 05:31:28;;;;;;;80.10;21.05;;;;;;;4.33;100.00;99785.66;12199372;19;20002;-81
2022/12/05 05:35:29;;;;;;;75.80;20.75;;;;;;;4.40;100.00;99782.09;12179051;19;20014;-84
2022/12/05 05:39:31;;;;;;;104.60;24.40;;;;;;;4.48;100.00;99796.38;12200482;19;20011;-83
2022/12/05 05:43:33;;;;;;;75.47;22.52;;;;;;;4.51;100.00;99795.09;12200141;19;20035;-82
2022/12/05 05:47:34;;;;;;;116.50;29.02;;;;;;;4.52;100.00;99797.66;12179923;19;20006;-82
2022/12/05 05:51:36;;;;;;;85.93;23.45;;;;;;;4.52;100.00;99792.19;12194846;19;20338;-82
2022/12/05 05:55:39;;;;;;;112.57;26.20;;;;;;;4.55;100.00;99789.03;12198590;19;20378;-82
2022/12/05 05:59:41;;;;;;;99.97;27.05;;;;;;;4.60;100.00;99803.94;12173354;19;20366;-81
2022/12/05 06:03:43;;;;;;;121.40;25.70;;;;;;;4.55;100.00;99816.31;12194217;19;20657;-82
2022/12/05 06:07:45;;;;;;;131.87;29.07;;;;;;;4.42;100.00;99813.59;12194611;19;20006;-82
2022/12/05 06:11:46;;;;;;;124.30;27.80;;;;;;;4.36;100.00;99822.59;12169362;19;20006;-82
2022/12/05 06:15:48;;;;;;;90.90;23.73;;;;;;;4.30;100.00;99827.00;12198062;19;20007;-82
2022/12/05 06:19:50;;;;;;;95.63;24.98;;;;;;;4.31;100.00;99825.09;12195768;19;20014;-81
2022/12/05 06:23:53;;;;;;;159.40;28.25;;;;;;;4.36;100.00;99833.50;12188836;19;20098;-82
2022/12/05 06:27:55;;;;;;;110.55;25.08;;;;;;;4.34;100.00;99841.94;12209371;19;20007;-82
2022/12/05 06:31:56;;;;;;;104.43;24.38;;;;;;;4.33;100.00;99836.66;12204818;19;20030;-81
2022/12/05 06:36:04;;;;;;;83.57;22.25;;;;;;;4.34;100.00;99827.41;12186525;19;20374;-83
2022/12/05 06:40:06;;;;;;;122.78;28.40;;;;;;;4.41;100.00;99841.09;12203171;19;20007;-82
2022/12/05 06:44:08;;;;;;;107.43;25.03;;;;;;;4.38;100.00;99845.06;12184925;19;20043;-81
2022/12/05 06:48:10;;;;;;;120.82;28.77;;;;;;;4.41;100.00;99846.53;12205982;19;20006;-81
2022/12/05 06:52:11;;;;;;;93.28;23.80;;;;;;;4.40;100.00;99864.78;12206059;19;20059;-82
2022/12/05 06:56:17;;;;;;;99.80;26.55;;;;;;;4.44;100.00;99866.06;12185462;19;20036;-81
2022/12/05 07:04:39;;;;;;;83.50;21.90;;;;;;;4.51;100.00;99866.06;12203573;19;20002;-83
2022/12/05 07:08:41;;;;;;;76.88;22.08;;;;;;;4.54;100.00;99865.63;12184608;19;20002;-82
2022/12/05 07:12:43;;;;;;;68.32;20.33;;;;;;;4.56;100.00;99869.00;12209270;19;20006;-83
2022/12/05 07:16:44;;;;;;;68.45;20.38;;;;;;;4.57;100.00;99876.97;12205799;19;20014;-83
2022/12/05 07:20:56;;;;;;;66.40;19.77;;;;;;;4.67;100.00;99882.03;12184142;19;20006;-83
2022/12/05 07:25:14;;;;;;;63.65;20.35;;;;;;;4.78;100.00;99877.81;12206450;19;20017;-83
2022/12/05 07:29:15;;;;;;;58.60;19.65;;;;;;;4.86;100.00;99884.97;12180701;19;20003;-83
2022/12/05 07:33:17;;;;;;;54.00;19.65;;;;;;;4.87;100.00;99882.00;12198836;19;20010;-83
2022/12/05 07:37:19;;;;;;;53.65;20.52;;;;;;;4.92;100.00;99895.88;12238695;19;19999;-80
2022/12/05 07:41:23;;;;;;;61.58;18.25;;;;;;;4.96;100.00;99902.59;12226380;19;20023;-82
2022/12/05 07:45:25;;;;;;;57.20;18.15;;;;;;;4.89;100.00;99904.50;12201369;19;19999;-82
2022/12/05 07:49:26;;;;;;;54.05;18.63;;;;;;;4.89;100.00;99911.84;12191340;19;20090;-80
2022/12/05 07:53:29;;;;;;;57.50;18.00;;;;;;;4.97;100.00;99904.28;12139984;19;20002;-80
2022/12/05 07:57:31;;;;;;;;;;;;;;;5.01;100.00;99916.47;12195657;19;20327;-83
2022/12/05 08:01:33;;;;;;;55.25;17.58;;;;;;;5.03;100.00;99917.09;12197580;19;19931;-83
2022/12/05 08:05:34;;;;;;;57.45;18.38;;;;;;;5.05;100.00;99919.59;12206898;19;20006;-80
2022/12/05 08:09:36;;;;;;;51.22;18.65;;;;;;;5.07;100.00;99925.69;12250525;19;20045;-80
2022/12/05 08:13:38;;;;;;;65.10;19.00;;;;;;;5.03;100.00;99919.81;12221172;19;20112;-83
2022/12/05 08:17:40;;;;;;;62.25;19.65;;;;;;;4.98;100.00;99929.69;12181856;19;20027;-82
2022/12/05 08:21:42;;;;;;;61.38;18.30;;;;;;;4.93;100.00;99934.94;12199196;19;20511;-82
2022/12/05 08:25:43;;;;;;;56.33;17.65;;;;;;;4.94;100.00;99931.19;12200231;19;20034;-81
2022/12/05 08:29:45;;;;;;;54.63;17.67;;;;;;;4.94;100.00;99937.47;12164390;19;20010;-81
2022/12/05 08:33:47;;;;;;;59.58;20.10;;;;;;;4.92;100.00;99936.84;12181335;19;20036;-82
2022/12/05 08:37:48;;;;;;;55.88;19.23;;;;;;;4.93;100.00;99952.16;12182664;19;20032;-81
2022/12/05 08:41:50;;;;;;;56.67;18.60;;;;;;;4.92;100.00;99947.75;12160152;19;20006;-81
2022/12/05 08:45:52;;;;;;;59.45;19.55;;;;;;;4.89;100.00;99967.28;12186937;19;20035;-81
2022/12/05 08:49:53;;;;;;;60.03;20.10;;;;;;;4.91;100.00;99965.22;12186400;19;20002;-81
2022/12/05 08:53:55;;;;;;;53.50;18.50;;;;;;;4.98;100.00;99971.50;12169858;19;20010;-81
2022/12/05 08:57:57;;;;;;;62.88;20.50;;;;;;;5.01;100.00;99971.06;12187991;19;20493;-82
2022/12/05 09:01:59;;;;;;;53.08;19.08;;;;;;;5.03;100.00;99979.91;12188598;19;20024;-81
2022/12/05 09:06:34;;;;;;;55.95;17.85;;;;;;;5.08;100.00;99978.44;12160443;19;20031;-81
2022/12/05 09:10:37;;;;;;;54.25;17.67;;;;;;;5.10;100.00;99984.53;12184578;19;20018;-82
2022/12/05 09:14:39;;;;;;;54.45;19.45;;;;;;;5.09;100.00;99983.69;12170151;19;20017;-84
2022/12/05 09:18:41;;;;;;;57.53;18.50;;;;;;;5.15;100.00;99988.31;12196772;19;20011;-84
2022/12/05 09:22:43;;;;;;;54.80;19.40;;;;;;;5.19;100.00;99988.72;12197541;19;20652;-84
2022/12/05 09:26:45;;;;;;;42.33;16.75;;;;;;;5.31;100.00;99991.69;12177348;19;20194;-84
2022/12/05 09:30:57;;;;;;;58.80;17.57;;;;;;;5.45;100.00;99994.19;12198095;19;20062;-83
2022/12/05 09:34:59;;;;;;;50.83;19.17;;;;;;;5.53;100.00;99995.84;12197807;19;20088;-83
2022/12/05 09:39:04;;;;;;;48.83;17.57;;;;;;;5.49;100.00;99998.16;12174416;19;20142;-80
2022/12/05 09:43:07;;;;;;;66.50;20.10;;;;;;;5.53;100.00;100001.31;12193104;19;20251;-81
2022/12/05 09:47:20;;;;;;;51.85;18.58;;;;;;;5.46;100.00;99998.59;12170373;19;20027;-82
2022/12/05 09:51:22;;;;;;;57.25;17.75;;;;;;;5.52;100.00;100001.53;12187828;19;20015;-82
2022/12/05 09:55:26;;;;;;;58.08;19.98;;;;;;;5.56;100.00;99991.84;12189341;19;20006;-82
2022/12/05 09:59:27;;;;;;;60.85;19.17;;;;;;;5.59;100.00;99992.28;12165395;19;20016;-80
2022/12/05 10:04:02;;;;;;;54.20;18.73;;;;;;;5.62;100.00;99993.72;12190104;19;20006;-81
2022/12/05 10:08:07;;;;;;;55.30;19.23;;;;;;;5.66;100.00;99989.53;12166966;19;20023;-81
2022/12/05 10:12:45;;;;;;;52.67;17.77;;;;;;;5.66;100.00;99984.91;12188351;19;20023;-81
2022/12/05 10:16:53;;;;;;;46.08;17.35;;;;;;;5.70;100.00;99988.03;12193826;19;20035;-81
2022/12/05 10:21:09;;;;;;;57.30;19.63;;;;;;;5.74;100.00;99991.19;12167498;19;20007;-82
2022/12/05 10:25:13;;;;;;;50.53;19.15;;;;;;;5.66;100.00;99989.53;12191584;19;20007;-84
2022/12/05 10:29:27;;;;;;;53.17;18.73;;;;;;;5.69;100.00;99980.91;12167160;19;20021;-82
2022/12/05 10:33:36;;;;;;;49.85;18.75;;;;;;;5.70;100.00;99986.13;12184645;19;20054;-81
2022/12/05 10:37:37;;;;;;;56.80;19.48;;;;;;;5.67;100.00;99983.00;12190624;19;20030;-81
2022/12/05 10:41:39;;;;;;;50.28;19.85;;;;;;;5.70;100.00;99983.41;12164034;19;20007;-82
2022/12/05 10:45:46;;;;;;;51.10;19.15;;;;;;;5.71;100.00;99981.50;12189679;19;20006;-82
2022/12/05 10:49:49;;;;;;;54.33;19.77;;;;;;;5.75;100.00;99985.50;12181819;19;20019;-82
2022/12/05 10:53:51;;;;;;;48.53;18.00;;;;;;;5.77;100.00;99975.22;12162408;19;20006;-81
2022/12/05 10:58:23;;;;;;;50.70;19.08;;;;;;;5.79;100.00;99974.97;12180386;19;20022;-82
2022/12/05 11:02:28;;;;;;;53.55;19.02;;;;;;;5.77;100.00;99980.69;12158881;19;20689;-82
2022/12/05 11:06:31;;;;;;;47.63;18.80;;;;;;;5.75;100.00;99988.25;12180212;19;20011;-81
2022/12/05 11:10:36;;;;;;;55.88;18.88;;;;;;;5.80;100.00;99982.13;12196443;19;21681;-84
2022/12/05 11:14:38;;;;;;;47.65;19.13;;;;;;;5.78;100.00;99989.72;12177589;19;20002;-83
2022/12/05 11:18:40;;;;;;;47.67;18.65;;;;;;;5.78;100.00;99987.81;12197585;19;20006;-83
2022/12/05 11:22:44;;;;;;;52.72;21.83;;;;;;;5.78;100.00;99982.34;12198682;19;20496;-82
2022/12/05 11:26:49;;;;;;;42.92;16.23;;;;;;;5.79;100.00;99981.28;12175728;19;20030;-82
2022/12/05 11:30:58;;;;;;;45.83;17.02;;;;;;;5.77;100.00;99986.16;12195612;19;20090;-82
2022/12/05 11:35:10;;;;;;;47.10;17.45;;;;;;;5.78;100.00;99986.97;12193842;19;20007;-82
2022/12/05 11:39:13;;;;;;;43.72;16.10;;;;;;;5.83;100.00;99985.28;12171320;19;20045;-82
2022/12/05 11:43:27;;;;;;;50.95;15.77;;;;;;;5.99;100.00;99988.63;12193047;19;20006;-81
2022/12/05 11:47:46;;;;;;;42.47;16.10;;;;;;;6.11;100.00;99984.16;12173641;19;20086;-83
2022/12/05 11:52:14;;;;;;;46.25;18.55;;;;;;;6.18;100.00;99984.97;12190986;19;20414;-81
2022/12/05 11:56:38;;;;;;;39.00;17.60;;;;;;;6.26;100.00;99976.50;12176863;19;20006;-82
2022/12/05 12:01:04;;;;;;;46.38;16.27;;;;;;;6.29;100.00;99967.88;12194867;19;20002;-81
2022/12/05 12:05:26;;;;;;;49.00;18.60;;;;;;;6.25;100.00;99972.13;12171058;19;20066;-84
2022/12/05 12:09:36;;;;;;;42.50;17.63;;;;;;;6.29;100.00;99972.50;12191554;19;20032;-84
2022/12/05 12:13:50;;;;;;;44.63;17.55;;;;;;;6.26;100.00;99973.78;12198602;19;20003;-83
2022/12/05 12:17:57;;;;;;;49.90;18.75;;;;;;;6.24;100.00;99983.25;12176297;19;20035;-81
2022/12/05 12:22:04;;;;;;;45.88;17.05;;;;;;;6.23;100.00;99976.94;12191243;19;20053;-80
2022/12/05 12:26:34;;;;;;;42.50;17.10;;;;;;;6.21;100.00;99980.97;12169483;19;20460;-82
2022/12/05 12:30:53;;;;;;;49.88;18.27;;;;;;;6.18;100.00;99968.56;12198554;19;20043;-84
2022/12/05 12:35:22;;;;;;;42.05;17.85;;;;;;;6.15;100.00;99978.03;12230330;19;20043;-81
2022/12/05 12:39:52;;;;;;;46.35;19.27;;;;;;;6.08;100.00;99974.50;12210666;19;20527;-82
2022/12/05 12:44:22;;;;;;;47.78;18.10;;;;;;;6.11;100.00;99976.78;12195796;19;20006;-84
2022/12/05 12:48:26;;;;;;;47.50;17.15;;;;;;;6.13;100.00;99974.69;12168362;19;20006;-83
2022/12/05 12:52:52;;;;;;;51.78;17.38;;;;;;;6.12;100.00;99974.88;12152005;19;20006;-82
2022/12/05 12:57:05;;;;;;;53.28;19.67;;;;;;;6.10;100.00;99969.66;12174919;19;20057;-82
2022/12/05 13:01:48;;;;;;;54.50;19.95;;;;;;;6.04;100.00;99973.25;12192894;19;20036;-82
2022/12/05 13:05:57;;;;;;;53.78;20.30;;;;;;;6.09;100.00;99973.41;12168060;19;20007;-83
2022/12/05 13:10:06;;;;;;;51.38;19.67;;;;;;;6.12;100.00;99974.88;12183934;19;20014;-82
2022/12/05 13:14:14;;;;;;;51.28;20.35;;;;;;;6.15;100.00;99974.47;12169340;19;20031;-81
2022/12/05 13:18:21;;;;;;;42.38;20.02;;;;;;;6.16;100.00;99970.69;12186842;19;20037;-83
2022/12/05 13:22:25;;;;;;;45.97;19.75;;;;;;;6.21;100.00;99972.75;12187476;19;20113;-82
2022/12/05 13:26:28;;;;;;;42.63;18.60;;;;;;;6.24;100.00;99969.56;12170094;19;20096;-82
2022/12/05 13:30:31;;;;;;;39.58;19.02;;;;;;;6.29;100.00;99977.97;12185243;19;20057;-81
2022/12/05 13:34:47;;;;;;;43.05;17.88;;;;;;;6.29;100.00;99973.34;12194075;19;20460;-81
2022/12/05 13:43:22;;;;;;;37.28;17.08;;;;;;;6.40;100.00;99977.31;12196652;19;20078;-83
2022/12/05 13:47:51;;;;;;;37.50;16.85;;;;;;;6.35;100.00;99975.22;12174178;19;20491;-81
2022/12/05 13:51:53;;;;;;;38.05;16.10;;;;;;;6.30;100.00;99969.53;12194258;19;20012;-83
2022/12/05 13:56:22;;;;;;;37.85;15.73;;;;;;;6.26;100.00;99979.25;12205703;19;20600;-82
2022/12/05 14:00:32;;;;;;;38.92;16.10;;;;;;;6.27;100.00;99978.19;12179659;19;20011;-83
2022/12/05 14:04:45;;;;;;;38.85;17.50;;;;;;;6.29;100.00;99991.66;12225256;19;20037;-81
2022/12/05 14:08:52;;;;;;;34.67;15.55;;;;;;;6.26;100.00;99995.66;12225959;19;20016;-82
2022/12/05 14:12:58;;;;;;;37.15;15.23;;;;;;;6.26;100.00;100001.16;12222224;19;20652;-84
2022/12/05 14:17:01;;;;;;;41.45;17.20;;;;;;;6.27;100.00;100001.97;12199449;19;20034;-84
2022/12/05 14:21:14;;;;;;;34.58;16.35;;;;;;;6.33;100.00;100001.94;12174665;19;20010;-84
2022/12/05 14:25:31;;;;;;;42.53;17.25;;;;;;;6.42;100.00;99996.22;12190979;19;20006;-83
2022/12/05 14:30:07;;;;;;;39.67;15.80;;;;;;;6.49;100.00;99999.78;12169208;19;20022;-83
2022/12/05 14:34:28;;;;;;;37.85;15.32;;;;;;;6.48;100.00;100006.31;12185029;19;20006;-84
2022/12/05 14:38:32;;;;;;;40.58;16.08;;;;;;;6.48;100.00;99993.44;12166035;19;20011;-82
2022/12/05 14:42:42;;;;;;;33.20;15.48;;;;;;;6.46;100.00;99994.75;12189061;19;20010;-83
2022/12/05 14:46:44;;;;;;;29.75;14.32;;;;;;;6.47;100.00;99990.94;12201564;19;20006;-82
2022/12/05 14:50:51;;;;;;;33.47;15.90;;;;;;;6.43;100.00;99992.47;12184824;19;19998;-82
2022/12/05 14:55:00;;;;;;;33.60;14.40;;;;;;;6.46;100.00;100000.22;12202837;19;20010;-84
2022/12/05 14:59:12;;;;;;;31.02;14.50;;;;;;;6.54;100.00;99991.75;12204672;19;20044;-83
2022/12/05 15:03:23;;;;;;;38.63;15.93;;;;;;;6.53;100.00;99999.13;12179022;19;21713;-81
2022/12/05 15:07:31;;;;;;;41.35;17.45;;;;;;;6.54;100.00;99998.09;12203660;19;20047;-83
2022/12/05 15:11:37;;;;;;;34.53;16.38;;;;;;;6.55;100.00;100005.22;12175708;19;20006;-84
2022/12/05 15:15:39;;;;;;;;;;;;;;;6.49;100.00;100005.25;12204240;19;20002;-82
2022/12/05 15:20:04;;;;;;;32.40;14.20;;;;;;;6.47;100.00;100016.41;12198725;19;19932;-83
2022/12/05 15:24:17;;;;;;;31.90;15.55;;;;;;;6.46;100.00;100013.91;12180484;19;20011;-84
2022/12/05 15:28:19;;;;;;;31.40;14.50;;;;;;;6.47;100.00;100008.22;12200812;19;20097;-82
2022/12/05 15:32:25;;;;;;;36.80;16.58;;;;;;;6.52;100.00;100010.31;12177190;19;20002;-82
2022/12/05 15:36:34;;;;;;;30.85;14.38;;;;;;;6.51;100.00;100008.59;12199508;19;20032;-82
2022/12/05 15:40:36;;;;;;;31.23;15.43;;;;;;;6.50;100.00;100009.66;12196857;19;20003;-82
2022/12/05 15:44:38;;;;;;;31.58;15.13;;;;;;;6.47;100.00;100019.16;12177334;19;19998;-83
2022/12/05 15:48:40;;;;;;;29.50;14.35;;;;;;;6.51;100.00;100011.34;12198906;19;20007;-83
2022/12/05 15:52:51;;;;;;;31.02;14.43;;;;;;;6.48;100.00;100009.03;12193667;19;20017;-82
2022/12/05 15:56:59;;;;;;;30.88;13.88;;;;;;;6.51;100.00;100023.13;12175422;19;20010;-82
2022/12/05 16:01:09;;;;;;;29.13;13.77;;;;;;;6.51;100.00;100019.56;12200835;19;20006;-83
2022/12/05 16:05:29;;;;;;;27.77;13.02;;;;;;;6.53;100.00;100018.28;12175668;19;20023;-83
2022/12/05 16:09:36;;;;;;;32.90;12.88;;;;;;;6.50;100.00;100023.38;12187656;19;20098;-82
2022/12/05 16:13:44;;;;;;;30.20;12.85;;;;;;;6.50;100.00;100020.63;12195548;19;20006;-82
2022/12/05 16:17:54;;;;;;;24.75;11.50;;;;;;;6.51;100.00;100019.56;12177945;19;21520;-82
2022/12/05 16:22:05;;;;;;;19.85;9.75;;;;;;;6.48;100.00;100017.25;12193275;19;20011;-82
2022/12/05 16:26:12;;;;;;;21.25;9.38;;;;;;;6.44;100.00;100022.34;12176100;19;20027;-81
2022/12/05 16:30:20;;;;;;;16.65;7.65;;;;;;;6.45;100.00;100026.75;12196751;19;20086;-83
2022/12/05 16:34:24;;;;;;;15.93;7.72;;;;;;;6.40;100.00;100023.84;12195873;19;20023;-82
2022/12/05 16:38:28;;;;;;;13.85;6.88;;;;;;;6.37;100.00;100025.09;12174740;19;20481;-83
2022/12/05 16:42:30;;;;;;;17.65;8.32;;;;;;;6.32;100.00;100022.16;12195231;19;20010;-83
2022/12/05 16:46:35;;;;;;;14.52;7.15;;;;;;;6.33;100.00;100032.06;12196395;19;20002;-82
2022/12/05 16:50:37;;;;;;;13.82;6.40;;;;;;;6.33;100.00;100032.06;12176086;19;20703;-82
2022/12/05 16:54:40;;;;;;;11.30;5.28;;;;;;;6.30;100.00;100029.75;12193994;19;20039;-82
2022/12/05 16:58:42;;;;;;;9.48;5.18;;;;;;;6.31;100.00;100034.19;12198663;19;20007;-82
2022/12/05 17:02:45;;;;;;;9.95;5.25;;;;;;;6.28;100.00;100039.25;12173968;19;20046;-83
2022/12/05 17:06:46;;;;;;;16.75;4.93;;;;;;;6.31;100.00;100036.09;12199271;19;20003;-82
2022/12/05 17:10:49;;;;;;;8.07;4.95;;;;;;;6.26;100.00;100039.47;12192157;19;20056;-82
2022/12/05 17:14:51;;;;;;;7.03;3.97;;;;;;;6.26;100.00;100044.94;12176493;19;20006;-83
2022/12/05 17:18:53;;;;;;;9.13;4.00;;;;;;;6.29;100.00;100039.03;12194790;19;20374;-81
2022/12/05 17:22:54;;;;;;;8.40;3.83;;;;;;;6.32;100.00;100043.22;12191705;19;20381;-82
2022/12/05 17:26:56;;;;;;;8.00;3.80;;;;;;;6.35;100.00;100051.00;12188529;19;20038;-82
2022/12/05 17:30:58;;;;;;;6.20;3.33;;;;;;;6.38;100.00;100054.16;12251284;19;20003;-82
2022/12/05 17:34:59;;;;;;;7.28;3.45;;;;;;;6.33;100.00;100055.84;12211118;19;20018;-83
2022/12/05 17:39:08;;;;;;;8.70;3.80;;;;;;;6.30;100.00;100065.31;12180133;19;20011;-82
2022/12/05 17:43:13;;;;;;;5.65;2.78;;;;;;;6.30;100.00;100067.22;12195515;19;20093;-82
2022/12/05 17:47:22;;;;;;;6.73;4.20;;;;;;;6.30;100.00;100078.19;12177783;19;20013;-82
2022/12/05 17:51:24;;;;;;;7.27;3.93;;;;;;;6.27;100.00;100063.03;12195760;19;20582;-81
2022/12/05 17:55:27;;;;;;;7.50;3.67;;;;;;;6.28;100.00;100064.72;12199448;19;20010;-83
2022/12/05 17:59:29;;;;;;;7.13;4.15;;;;;;;6.25;100.00;100067.88;12174736;19;20263;-83
2022/12/05 18:03:31;;;;;;;11.07;5.22;;;;;;;6.26;100.00;100077.78;12197617;19;20027;-82
2022/12/05 18:07:32;;;;;;;9.57;4.53;;;;;;;6.26;100.00;100066.00;12198121;19;20011;-83
2022/12/05 18:11:34;;;;;;;7.28;4.07;;;;;;;6.25;100.00;100067.06;12168447;19;20006;-82
2022/12/05 18:15:37;;;;;;;7.15;4.20;;;;;;;6.23;100.00;100078.19;12196295;19;20007;-83
2022/12/05 18:19:43;;;;;;;6.68;3.47;;;;;;;6.24;100.00;100077.13;12192363;19;20042;-84
2022/12/05 18:23:45;;;;;;;7.15;3.63;;;;;;;6.25;100.00;100073.38;12174790;19;20015;-84
2022/12/05 18:27:47;;;;;;;7.90;4.00;;;;;;;6.31;100.00;100069.75;12194996;19;21416;-82
2022/12/05 18:31:48;;;;;;;5.80;3.50;;;;;;;6.31;100.00;100074.41;12188946;19;20004;-82
2022/12/05 18:35:50;;;;;;;6.65;4.00;;;;;;;6.28;100.00;100074.84;12172625;19;20007;-83
2022/12/05 18:39:52;;;;;;;8.27;3.55;;;;;;;6.27;100.00;100070.41;12188942;19;20043;-84
2022/12/05 18:43:54;;;;;;;7.10;3.67;;;;;;;6.24;100.00;100068.94;12182641;19;20070;-83
2022/12/05 18:47:56;;;;;;;6.18;3.47;;;;;;;6.25;100.00;100075.28;12155209;19;20599;-83
2022/12/05 18:52:17;;;;;;;7.03;3.78;;;;;;;6.22;100.00;100067.50;12180058;19;20148;-82
2022/12/05 18:56:23;;;;;;;6.20;3.83;;;;;;;6.19;100.00;100066.03;12164914;19;20496;-83
2022/12/05 19:00:26;;;;;;;6.63;3.95;;;;;;;6.13;100.00;100056.78;12188656;19;20007;-83